createdAt,value
2022-10-26T00:00:47.149Z,10.60
2022-10-26T00:03:14.254Z,10.70
2022-10-26T00:05:41.299Z,10.70
2022-10-26T00:08:08.448Z,10.70
2022-10-26T00:10:35.758Z,10.70
2022-10-26T00:13:03.054Z,10.70
2022-10-26T00:15:30.087Z,10.70
2022-10-26T00:17:57.164Z,10.80
2022-10-26T00:20:24.289Z,10.80
2022-10-26T00:22:51.365Z,10.90
2022-10-26T00:25:18.389Z,10.90
2022-10-26T00:27:45.412Z,10.80
2022-10-26T00:30:12.492Z,10.90
2022-10-26T00:35:21.188Z,10.90
2022-10-26T00:37:55.126Z,11.00
2022-10-26T00:40:22.331Z,11.00
2022-10-26T00:42:49.598Z,10.90
2022-10-26T00:45:19.033Z,11.00
2022-10-26T00:47:47.343Z,11.00
2022-10-26T00:50:34.619Z,11.00
2022-10-26T00:53:03.273Z,11.10
2022-10-26T00:55:38.009Z,11.10
2022-10-26T00:58:05.643Z,11.00
2022-10-26T01:00:32.694Z,11.00
2022-10-26T01:03:00.218Z,10.90
2022-10-26T01:05:27.328Z,10.90
2022-10-26T01:07:54.354Z,10.80
2022-10-26T01:10:21.366Z,10.90
2022-10-26T01:12:48.385Z,11.00
2022-10-26T01:15:15.397Z,10.90
2022-10-26T01:17:45.554Z,10.90
2022-10-26T01:20:15.524Z,11.00
2022-10-26T01:22:44.484Z,11.10
2022-10-26T01:25:29.967Z,11.20
2022-10-26T01:27:56.986Z,11.20
2022-10-26T01:30:34.822Z,11.10
2022-10-26T01:33:01.830Z,11.10
2022-10-26T01:35:32.759Z,11.10
2022-10-26T01:38:04.296Z,11.10
2022-10-26T01:40:34.731Z,11.10
2022-10-26T01:43:02.939Z,11.20
2022-10-26T01:45:29.946Z,11.20
2022-10-26T01:47:57.000Z,11.30
2022-10-26T01:50:24.010Z,11.30
2022-10-26T01:52:51.098Z,11.20
2022-10-26T01:55:33.343Z,11.10
2022-10-26T01:58:01.764Z,11.10
2022-10-26T02:00:28.819Z,11.20
2022-10-26T02:03:22.237Z,11.30
2022-10-26T02:05:52.551Z,11.30
2022-10-26T02:08:21.531Z,11.30
2022-10-26T02:10:51.647Z,11.20
2022-10-26T02:13:25.566Z,11.20
2022-10-26T02:15:52.569Z,11.20
2022-10-26T02:18:19.621Z,11.10
2022-10-26T02:20:48.079Z,11.10
2022-10-26T02:23:15.061Z,11.10
2022-10-26T02:25:44.577Z,11.20
2022-10-26T02:28:12.603Z,11.20
2022-10-26T02:30:39.603Z,11.10
2022-10-26T02:33:06.644Z,11.20
2022-10-26T02:35:34.170Z,11.10
2022-10-26T02:38:01.593Z,11.10
2022-10-26T02:40:28.722Z,11.20
2022-10-26T02:42:56.769Z,11.10
2022-10-26T02:45:28.302Z,11.20
2022-10-26T02:47:55.360Z,11.10
2022-10-26T02:50:23.830Z,11.10
2022-10-26T02:53:00.013Z,11.10
2022-10-26T02:55:30.783Z,11.10
2022-10-26T02:57:59.156Z,11.30
2022-10-26T03:00:26.176Z,11.30
2022-10-26T03:02:55.025Z,11.30
2022-10-26T03:05:29.052Z,11.40
2022-10-26T03:07:56.246Z,11.40
2022-10-26T03:10:23.265Z,11.50
2022-10-26T03:12:50.731Z,11.40
2022-10-26T03:15:17.981Z,11.40
2022-10-26T03:17:45.035Z,11.40
2022-10-26T03:20:12.075Z,11.40
2022-10-26T03:22:39.121Z,11.40
2022-10-26T03:25:06.395Z,11.50
2022-10-26T03:27:35.038Z,11.50
2022-10-26T03:30:02.102Z,11.50
2022-10-26T03:32:29.142Z,11.60
2022-10-26T03:34:56.149Z,11.50
2022-10-26T03:37:23.247Z,11.50
2022-10-26T03:39:50.337Z,11.60
2022-10-26T03:42:17.349Z,11.60
2022-10-26T03:44:44.423Z,11.60
2022-10-26T03:47:11.428Z,11.60
2022-10-26T03:49:38.441Z,11.50
2022-10-26T03:52:05.455Z,11.60
2022-10-26T03:54:32.465Z,11.60
2022-10-26T03:56:59.518Z,11.70
2022-10-26T03:59:26.527Z,11.60
2022-10-26T04:01:56.735Z,11.60
2022-10-26T04:04:25.188Z,11.60
2022-10-26T04:06:52.279Z,11.60
2022-10-26T04:09:19.281Z,11.60
2022-10-26T04:11:46.319Z,11.60
2022-10-26T04:14:13.334Z,11.60
2022-10-26T04:16:40.488Z,11.60
2022-10-26T04:19:07.521Z,11.60
2022-10-26T04:21:35.365Z,11.60
2022-10-26T04:24:02.419Z,11.70
2022-10-26T04:26:29.438Z,11.80
2022-10-26T04:28:56.475Z,11.80
2022-10-26T04:31:23.486Z,11.90
2022-10-26T04:33:50.494Z,11.90
2022-10-26T04:36:17.517Z,12.00
2022-10-26T04:38:44.539Z,11.90
2022-10-26T04:41:11.615Z,11.90
2022-10-26T04:43:38.630Z,11.90
2022-10-26T04:46:05.692Z,11.90
2022-10-26T04:48:32.697Z,11.90
2022-10-26T04:50:59.921Z,11.90
2022-10-26T04:53:27.290Z,11.90
2022-10-26T04:55:57.958Z,11.90
2022-10-26T04:58:25.186Z,11.90
2022-10-26T05:00:52.194Z,11.90
2022-10-26T05:03:19.198Z,11.80
2022-10-26T05:05:47.739Z,11.80
2022-10-26T05:08:14.983Z,11.90
2022-10-26T05:10:42.128Z,11.90
2022-10-26T05:13:09.130Z,11.90
2022-10-26T05:15:36.193Z,11.90
2022-10-26T05:18:05.508Z,11.90
2022-10-26T05:20:33.162Z,12.00
2022-10-26T05:23:04.034Z,12.00
2022-10-26T05:25:31.767Z,12.00
2022-10-26T05:27:59.139Z,12.10
2022-10-26T05:30:26.348Z,12.20
2022-10-26T05:32:54.086Z,12.20
2022-10-26T05:35:21.079Z,12.20
2022-10-26T05:37:48.110Z,12.10
2022-10-26T05:40:16.621Z,12.20
2022-10-26T05:42:43.969Z,12.10
2022-10-26T05:45:11.216Z,12.10
2022-10-26T05:47:41.858Z,12.10
2022-10-26T05:50:09.191Z,12.20
2022-10-26T05:52:42.779Z,12.20
2022-10-26T05:55:10.234Z,12.20
2022-10-26T05:57:37.450Z,12.20
2022-10-26T06:00:07.939Z,12.20
2022-10-26T06:02:39.331Z,12.30
2022-10-26T06:05:07.377Z,12.30
2022-10-26T06:07:34.536Z,12.30
2022-10-26T06:10:01.695Z,12.30
2022-10-26T06:12:28.861Z,12.40
2022-10-26T06:14:56.064Z,12.50
2022-10-26T06:17:53.889Z,12.50
2022-10-26T06:20:22.116Z,12.50
2022-10-26T06:23:00.450Z,12.50
2022-10-26T06:25:33.249Z,12.60
2022-10-26T06:28:00.325Z,12.50
2022-10-26T06:30:27.397Z,12.40
2022-10-26T06:33:05.764Z,12.30
2022-10-26T06:35:41.631Z,12.40
2022-10-26T06:38:13.494Z,12.50
2022-10-26T06:40:40.737Z,12.60
2022-10-26T06:43:17.154Z,12.60
2022-10-26T06:45:44.903Z,12.60
2022-10-26T06:48:13.696Z,12.60
2022-10-26T06:51:01.006Z,12.70
2022-10-26T06:53:32.924Z,12.70
2022-10-26T06:56:00.204Z,12.80
2022-10-26T06:58:34.759Z,12.90
2022-10-26T07:01:01.797Z,13.00
2022-10-26T07:03:28.819Z,13.00
2022-10-26T07:05:55.850Z,13.00
2022-10-26T07:08:22.908Z,13.10
2022-10-26T07:10:49.962Z,13.10
2022-10-26T07:13:17.625Z,13.20
2022-10-26T07:15:45.073Z,13.20
2022-10-26T07:18:12.131Z,13.30
2022-10-26T07:20:39.565Z,13.30
2022-10-26T07:23:12.765Z,13.40
2022-10-26T07:25:40.559Z,13.40
2022-10-26T07:28:09.817Z,13.50
2022-10-26T07:30:37.030Z,13.50
2022-10-26T07:33:04.965Z,13.50
2022-10-26T07:35:32.843Z,13.50
2022-10-26T07:37:59.911Z,13.40
2022-10-26T07:40:27.191Z,13.30
2022-10-26T07:42:56.114Z,13.40
2022-10-26T07:45:23.206Z,13.40
2022-10-26T07:47:50.374Z,13.40
2022-10-26T07:50:17.390Z,13.40
2022-10-26T07:52:44.410Z,13.50
2022-10-26T07:55:11.691Z,13.40
2022-10-26T07:57:38.986Z,13.40
2022-10-26T08:00:06.805Z,13.40
2022-10-26T08:02:34.077Z,13.40
2022-10-26T08:05:01.076Z,13.60
2022-10-26T08:07:28.216Z,13.50
2022-10-26T08:09:55.328Z,13.50
2022-10-26T08:12:22.347Z,13.70
2022-10-26T08:14:49.796Z,13.80
2022-10-26T08:17:17.038Z,13.90
2022-10-26T08:19:44.069Z,13.90
2022-10-26T08:22:11.175Z,14.00
2022-10-26T08:24:38.301Z,14.00
2022-10-26T08:27:05.316Z,14.00
2022-10-26T08:29:32.398Z,14.10
2022-10-26T08:31:59.401Z,14.30
2022-10-26T08:34:26.407Z,14.60
2022-10-26T08:36:53.474Z,14.70
2022-10-26T08:39:20.558Z,14.90
2022-10-26T08:41:47.971Z,15.00
2022-10-26T08:44:24.091Z,15.20
2022-10-26T08:47:03.295Z,15.30
2022-10-26T08:49:31.347Z,15.40
2022-10-26T08:52:00.002Z,15.60
2022-10-26T08:54:37.935Z,15.70
2022-10-26T08:57:10.847Z,15.80
2022-10-26T08:59:43.636Z,16.00
2022-10-26T09:02:14.080Z,16.20
2022-10-26T09:04:41.267Z,16.50
2022-10-26T09:07:26.962Z,16.60
2022-10-26T09:09:57.122Z,16.70
2022-10-26T09:12:28.952Z,16.90
2022-10-26T09:15:10.405Z,17.10
2022-10-26T09:17:56.139Z,17.20
2022-10-26T09:20:29.297Z,17.40
2022-10-26T09:22:56.329Z,17.60
2022-10-26T09:25:23.746Z,17.70
2022-10-26T09:27:52.167Z,17.80
2022-10-26T09:30:20.105Z,17.90
2022-10-26T09:32:48.051Z,18.00
2022-10-26T09:35:16.166Z,18.20
2022-10-26T09:37:57.919Z,18.40
2022-10-26T09:40:29.894Z,18.60
2022-10-26T09:43:07.325Z,18.80
2022-10-26T09:45:38.282Z,18.80
2022-10-26T09:48:12.694Z,18.70
2022-10-26T09:50:39.986Z,18.80
2022-10-26T09:53:07.011Z,18.80
2022-10-26T09:55:34.579Z,19.00
2022-10-26T09:58:02.300Z,19.00
2022-10-26T10:00:29.562Z,19.00
2022-10-26T10:02:57.059Z,19.00
2022-10-26T10:05:39.152Z,19.10
2022-10-26T10:08:24.137Z,19.10
2022-10-26T10:11:07.501Z,19.10
2022-10-26T10:13:36.090Z,19.00
2022-10-26T10:16:04.580Z,18.90
2022-10-26T10:18:31.649Z,18.90
2022-10-26T10:20:58.812Z,18.90
2022-10-26T10:23:28.975Z,18.90
2022-10-26T10:25:59.782Z,19.00
2022-10-26T10:28:27.002Z,19.30
2022-10-26T10:30:55.463Z,19.30
2022-10-26T10:33:22.537Z,19.40
2022-10-26T10:35:50.700Z,19.40
2022-10-26T10:38:18.579Z,19.40
2022-10-26T10:40:52.239Z,19.40
2022-10-26T10:43:19.275Z,19.40
2022-10-26T10:45:50.224Z,19.40
2022-10-26T10:48:17.234Z,19.40
2022-10-26T10:51:00.102Z,19.40
2022-10-26T10:53:30.142Z,19.30
2022-10-26T10:55:57.139Z,19.30
2022-10-26T10:58:26.235Z,19.20
2022-10-26T11:00:53.501Z,19.10
2022-10-26T11:03:25.949Z,19.00
2022-10-26T11:05:53.279Z,18.90
2022-10-26T11:08:26.100Z,19.00
2022-10-26T11:11:13.472Z,19.10
2022-10-26T11:13:54.335Z,19.20
2022-10-26T11:16:31.268Z,19.20
2022-10-26T11:19:03.011Z,19.20
2022-10-26T11:21:31.003Z,19.10
2022-10-26T11:24:01.958Z,19.10
2022-10-26T11:26:28.982Z,19.10
2022-10-26T11:28:58.533Z,19.10
2022-10-26T11:31:30.911Z,19.10
2022-10-26T11:34:01.061Z,19.20
2022-10-26T11:36:30.061Z,19.20
2022-10-26T11:39:17.420Z,19.20
2022-10-26T11:41:49.259Z,19.10
2022-10-26T11:44:22.455Z,19.10
2022-10-26T11:46:56.326Z,19.10
2022-10-26T11:49:23.383Z,19.20
2022-10-26T11:51:55.598Z,19.20
2022-10-26T11:54:28.687Z,19.10
2022-10-26T11:56:56.042Z,19.10
2022-10-26T11:59:26.924Z,19.20
2022-10-26T12:02:03.418Z,19.10
2022-10-26T12:04:30.859Z,19.00
2022-10-26T12:06:58.715Z,19.00
2022-10-26T12:09:34.889Z,18.90
2022-10-26T12:12:05.595Z,18.80
2022-10-26T12:14:37.893Z,18.80
2022-10-26T12:17:23.629Z,18.70
2022-10-26T12:20:09.531Z,18.70
2022-10-26T12:22:43.650Z,18.70
2022-10-26T12:25:14.778Z,18.70
2022-10-26T12:27:42.321Z,18.70
2022-10-26T12:30:18.726Z,18.80
2022-10-26T12:32:45.793Z,18.90
2022-10-26T12:35:29.097Z,19.00
2022-10-26T12:37:56.178Z,19.10
2022-10-26T12:40:42.053Z,19.20
2022-10-26T12:43:18.378Z,19.30
2022-10-26T12:45:46.047Z,19.40
2022-10-26T12:48:39.051Z,19.60
2022-10-26T12:51:18.777Z,19.70
2022-10-26T12:53:52.906Z,20.00
2022-10-26T12:56:20.096Z,20.10
2022-10-26T12:58:52.562Z,20.20
2022-10-26T13:01:26.452Z,20.20
2022-10-26T13:04:09.064Z,20.20
2022-10-26T13:06:36.094Z,20.20
2022-10-26T13:11:43.369Z,20.10
2022-10-26T13:14:21.815Z,20.10
2022-10-26T13:16:48.954Z,19.90
2022-10-26T13:19:24.030Z,19.90
2022-10-26T13:21:51.238Z,19.90
2022-10-26T13:24:18.454Z,19.90
2022-10-26T13:27:04.290Z,19.90
2022-10-26T13:29:31.852Z,19.80
2022-10-26T13:31:59.316Z,19.60
2022-10-26T13:34:27.722Z,19.60
2022-10-26T13:37:03.900Z,19.60
2022-10-26T13:39:31.641Z,19.60
2022-10-26T13:41:58.818Z,19.60
2022-10-26T13:44:44.621Z,19.70
2022-10-26T13:47:12.570Z,19.60
2022-10-26T13:49:40.369Z,19.70
2022-10-26T13:52:12.573Z,19.80
2022-10-26T13:54:42.830Z,19.80
2022-10-26T13:57:09.915Z,19.80
2022-10-26T13:59:38.470Z,19.80
2022-10-26T14:02:15.855Z,19.80
2022-10-26T14:04:45.219Z,19.80
2022-10-26T14:07:15.280Z,19.70
2022-10-26T14:09:43.016Z,19.60
2022-10-26T14:12:10.027Z,19.60
2022-10-26T14:14:37.431Z,19.70
2022-10-26T14:17:05.073Z,19.70
2022-10-26T14:19:32.130Z,19.60
2022-10-26T14:21:59.161Z,19.50
2022-10-26T14:24:46.989Z,19.50
2022-10-26T14:27:15.702Z,19.50
2022-10-26T14:29:46.890Z,19.40
2022-10-26T14:32:25.443Z,19.30
2022-10-26T14:34:52.520Z,19.30
2022-10-26T14:37:27.620Z,19.20
2022-10-26T14:39:54.639Z,19.20
2022-10-26T14:42:26.926Z,19.30
2022-10-26T14:44:54.223Z,19.30
2022-10-26T14:47:25.686Z,19.10
2022-10-26T14:49:52.920Z,19.10
2022-10-26T14:52:21.847Z,19.10
2022-10-26T14:54:58.876Z,19.10
2022-10-26T14:57:35.560Z,19.00
2022-10-26T15:00:04.297Z,19.00
2022-10-26T15:02:31.333Z,18.90
2022-10-26T15:04:59.566Z,18.90
2022-10-26T15:07:34.047Z,18.90
2022-10-26T15:10:01.139Z,18.80
2022-10-26T15:12:29.880Z,18.80
2022-10-26T15:14:57.042Z,18.80
2022-10-26T15:17:24.702Z,18.70
2022-10-26T15:19:51.760Z,18.70
2022-10-26T15:22:30.915Z,18.70
2022-10-26T15:24:59.626Z,18.70
2022-10-26T15:27:26.663Z,18.60
2022-10-26T15:30:08.562Z,18.70
2022-10-26T15:32:35.632Z,18.70
2022-10-26T15:35:15.316Z,18.60
2022-10-26T15:37:42.442Z,18.50
2022-10-26T15:40:09.663Z,18.40
2022-10-26T15:42:38.138Z,18.40
2022-10-26T15:45:05.927Z,18.40
2022-10-26T15:47:33.269Z,18.30
2022-10-26T15:50:00.476Z,18.30
2022-10-26T15:52:27.545Z,18.20
2022-10-26T15:54:54.582Z,18.00
2022-10-26T15:57:21.720Z,18.00
2022-10-26T15:59:48.762Z,17.90
2022-10-26T16:02:15.951Z,17.90
2022-10-26T16:04:43.087Z,17.80
2022-10-26T16:07:13.597Z,17.70
2022-10-26T16:09:41.022Z,17.70
2022-10-26T16:12:11.576Z,17.70
2022-10-26T16:14:53.308Z,17.60
2022-10-26T16:17:25.777Z,17.60
2022-10-26T16:19:52.818Z,17.50
2022-10-26T16:22:19.843Z,17.40
2022-10-26T16:24:46.860Z,17.30
2022-10-26T16:27:13.890Z,17.30
2022-10-26T16:29:40.952Z,17.20
2022-10-26T16:32:07.959Z,17.20
2022-10-26T16:34:34.973Z,17.20
2022-10-26T16:37:01.996Z,17.10
2022-10-26T16:39:29.026Z,17.10
2022-10-26T16:41:56.049Z,17.00
2022-10-26T16:44:23.110Z,16.90
2022-10-26T16:46:50.133Z,16.80
2022-10-26T16:49:18.070Z,16.80
2022-10-26T16:51:45.090Z,16.80
2022-10-26T16:54:12.105Z,16.80
2022-10-26T16:56:39.190Z,16.80
2022-10-26T16:59:06.262Z,16.80
2022-10-26T17:01:33.625Z,16.70
2022-10-26T17:04:00.985Z,16.70
2022-10-26T17:06:28.039Z,16.70
2022-10-26T17:08:55.054Z,16.60
2022-10-26T17:11:22.118Z,16.60
2022-10-26T17:13:52.637Z,16.50
2022-10-26T17:16:20.321Z,16.60
2022-10-26T17:18:47.763Z,16.50
2022-10-26T17:21:15.399Z,16.40
2022-10-26T17:23:42.443Z,16.40
2022-10-26T17:26:10.094Z,16.30
2022-10-26T17:28:37.215Z,16.30
2022-10-26T17:31:07.340Z,16.20
2022-10-26T17:33:34.677Z,16.20
2022-10-26T17:36:02.043Z,16.30
2022-10-26T17:38:32.525Z,16.30
2022-10-26T17:41:00.295Z,16.20
2022-10-26T17:43:29.306Z,16.10
2022-10-26T17:46:00.059Z,16.00
2022-10-26T17:48:27.692Z,15.90
2022-10-26T17:50:54.758Z,15.80
2022-10-26T17:53:21.847Z,15.70
2022-10-26T17:55:48.877Z,15.60
2022-10-26T17:58:15.939Z,15.60
2022-10-26T18:00:46.621Z,15.40
2022-10-26T18:03:15.044Z,15.30
2022-10-26T18:05:42.090Z,15.30
2022-10-26T18:08:09.117Z,15.20
2022-10-26T18:10:38.161Z,15.10
2022-10-26T18:13:05.342Z,15.00
2022-10-26T18:15:34.439Z,14.90
2022-10-26T18:18:01.464Z,14.80
2022-10-26T18:20:28.611Z,14.80
2022-10-26T18:22:55.852Z,14.80
2022-10-26T18:25:23.204Z,14.80
2022-10-26T18:27:50.318Z,14.80
2022-10-26T18:30:17.339Z,14.70
2022-10-26T18:32:44.369Z,14.60
2022-10-26T18:35:11.419Z,14.60
2022-10-26T18:37:38.422Z,14.60
2022-10-26T18:40:05.754Z,14.50
2022-10-26T18:42:32.796Z,14.40
2022-10-26T18:45:02.809Z,14.30
2022-10-26T18:47:30.050Z,14.30
2022-10-26T18:49:57.173Z,14.30
2022-10-26T18:52:24.261Z,14.20
2022-10-26T18:54:51.292Z,14.20
2022-10-26T18:57:18.831Z,14.20
2022-10-26T18:59:45.854Z,14.20
2022-10-26T19:02:13.281Z,14.20
2022-10-26T19:04:40.428Z,14.20
2022-10-26T19:07:07.452Z,14.20
2022-10-26T19:09:34.535Z,14.20
2022-10-26T19:12:03.790Z,14.20
2022-10-26T19:14:31.068Z,14.00
2022-10-26T19:16:58.107Z,14.00
2022-10-26T19:19:25.287Z,14.00
2022-10-26T19:21:52.354Z,13.90
2022-10-26T19:24:20.181Z,13.90
2022-10-26T19:26:47.442Z,13.80
2022-10-26T19:29:15.505Z,13.80
2022-10-26T19:31:43.667Z,13.80
2022-10-26T19:34:11.026Z,13.70
2022-10-26T19:36:39.479Z,13.70
2022-10-26T19:39:07.438Z,13.60
2022-10-26T19:41:34.478Z,13.50
2022-10-26T19:44:01.501Z,13.50
2022-10-26T19:46:28.883Z,13.50
2022-10-26T19:48:56.503Z,13.40
2022-10-26T19:51:23.666Z,13.30
2022-10-26T19:53:50.749Z,13.20
2022-10-26T19:56:17.819Z,13.20
2022-10-26T19:58:44.874Z,13.10
2022-10-26T20:01:12.333Z,13.00
2022-10-26T20:03:39.384Z,13.00
2022-10-26T20:06:08.394Z,12.90
2022-10-26T20:08:38.406Z,12.90
2022-10-26T20:11:05.694Z,12.90
2022-10-26T20:13:32.952Z,12.90
2022-10-26T20:15:59.991Z,13.00
2022-10-26T20:18:27.719Z,13.00
2022-10-26T20:20:54.734Z,13.00
2022-10-26T20:23:21.735Z,13.00
2022-10-26T20:25:49.339Z,13.00
2022-10-26T20:28:16.726Z,12.90
2022-10-26T20:30:43.980Z,12.90
2022-10-26T20:33:11.186Z,12.80
2022-10-26T20:35:38.425Z,12.80
2022-10-26T20:38:05.659Z,12.90
2022-10-26T20:40:32.845Z,12.90
2022-10-26T20:43:00.055Z,12.80
2022-10-26T20:45:27.080Z,12.80
2022-10-26T20:47:54.605Z,12.60
2022-10-26T20:50:22.199Z,12.60
2022-10-26T20:52:56.683Z,12.60
2022-10-26T20:55:23.788Z,12.70
2022-10-26T20:57:55.439Z,12.70
2022-10-26T21:00:22.589Z,12.70
2022-10-26T21:02:49.917Z,12.70
2022-10-26T21:05:18.974Z,12.60
2022-10-26T21:07:46.064Z,12.70
2022-10-26T21:10:13.274Z,12.70
2022-10-26T21:12:40.991Z,12.70
2022-10-26T21:15:08.294Z,12.60
2022-10-26T21:17:35.373Z,12.50
2022-10-26T21:20:02.556Z,12.50
2022-10-26T21:22:29.608Z,12.40
2022-10-26T21:24:56.645Z,12.40
2022-10-26T21:27:23.662Z,12.50
2022-10-26T21:29:50.689Z,12.40
2022-10-26T21:32:17.734Z,12.40
2022-10-26T21:34:44.757Z,12.40
2022-10-26T21:37:11.787Z,12.30
2022-10-26T21:39:38.790Z,12.40
2022-10-26T21:42:05.849Z,12.30
2022-10-26T21:44:41.043Z,12.30
2022-10-26T21:47:10.812Z,12.30
2022-10-26T21:49:37.932Z,12.20
2022-10-26T21:52:05.474Z,12.20
2022-10-26T21:54:32.501Z,12.10
2022-10-26T21:56:59.522Z,12.10
2022-10-26T21:59:26.541Z,12.00
2022-10-26T22:01:53.649Z,12.00
2022-10-26T22:04:20.774Z,12.00
2022-10-26T22:06:47.771Z,12.00
2022-10-26T22:09:14.799Z,11.90
2022-10-26T22:11:41.811Z,11.90
2022-10-26T22:14:08.828Z,12.00
2022-10-26T22:16:35.859Z,11.90
2022-10-26T22:19:03.746Z,11.90
2022-10-26T22:21:32.446Z,11.80
2022-10-26T22:23:59.454Z,11.80
2022-10-26T22:26:26.515Z,11.70
2022-10-26T22:28:54.256Z,11.80
2022-10-26T22:31:28.455Z,11.80
2022-10-26T22:34:02.010Z,11.80
2022-10-26T22:36:32.022Z,11.90
2022-10-26T22:38:59.044Z,11.90
2022-10-26T22:41:26.058Z,12.00
2022-10-26T22:43:53.162Z,12.00
2022-10-26T22:46:20.910Z,12.00
2022-10-26T22:48:47.985Z,11.90
2022-10-26T22:51:16.710Z,11.90
2022-10-26T22:53:43.865Z,12.00
2022-10-26T22:56:11.203Z,12.00
2022-10-26T22:58:38.325Z,11.90
2022-10-26T23:01:06.130Z,11.90
2022-10-26T23:03:33.738Z,11.90
2022-10-26T23:06:01.051Z,11.80
2022-10-26T23:08:28.107Z,11.90
2022-10-26T23:10:59.534Z,11.90
2022-10-26T23:13:26.685Z,11.80
2022-10-26T23:15:53.718Z,11.80
2022-10-26T23:18:20.785Z,11.90
2022-10-26T23:20:48.551Z,11.90
2022-10-26T23:23:15.821Z,11.90
2022-10-26T23:25:43.014Z,11.80
2022-10-26T23:28:10.191Z,11.70
2022-10-26T23:30:37.279Z,11.70
2022-10-26T23:33:04.299Z,11.60
2022-10-26T23:35:31.323Z,11.50
2022-10-26T23:37:58.789Z,11.50
2022-10-26T23:40:26.222Z,11.50
2022-10-26T23:42:53.468Z,11.50
2022-10-26T23:45:21.107Z,11.50
2022-10-26T23:47:48.529Z,11.50
2022-10-26T23:50:15.906Z,11.60
2022-10-26T23:52:46.746Z,11.60
2022-10-26T23:55:13.929Z,11.50
2022-10-26T23:57:40.949Z,11.50
